Time;durP1;ratioP1;P1;durP2;ratioP2;P2;SDS_P1;SDS_P2;PMS_P1;PMS_P2;Temp;Humidity;BMP_temperature;BMP_pressure;BME280_temperature;BME280_humidity;BME280_pressure;Samples;Min_cycle;Max_cycle;Signal;HPM_P1;HPM_P2
2021/04/18 00:01:46;;;;;;;4.75;3.30;;;;;;;;;;5094168;28;20688;-61
2021/04/18 00:04:13;;;;;;;9.20;3.90;;;;;;;;;;5094123;28;20527;-61
2021/04/18 00:06:40;;;;;;;7.68;3.65;;;;;;;;;;5093859;28;20227;-60
2021/04/18 00:09:08;;;;;;;5.60;3.55;;;;;;;;;;5112678;28;20231;-61
2021/04/18 00:11:34;;;;;;;6.18;2.80;;;;;;;;;;5111504;28;20201;-61
2021/04/18 00:14:03;;;;;;;6.80;3.53;;;;;;;;;;5112817;28;20302;-61
2021/04/18 00:16:30;;;;;;;4.13;3.00;;;;;;;;;;5113244;28;20221;-60
2021/04/18 00:18:57;;;;;;;6.20;3.03;;;;;;;;;;5095901;28;20254;-62
2021/04/18 00:21:24;;;;;;;4.85;2.80;;;;;;;;;;5100532;28;20204;-60
2021/04/18 00:23:51;;;;;;;4.85;3.58;;;;;;;;;;5095989;28;20212;-61
2021/04/18 00:26:17;;;;;;;6.68;3.88;;;;;;;;;;5099797;28;20224;-61
2021/04/18 00:28:44;;;;;;;5.90;3.45;;;;;;;;;;5102068;28;20224;-61
2021/04/18 00:31:11;;;;;;;8.10;3.40;;;;;;;;;;5100279;28;20254;-62
2021/04/18 00:33:39;;;;;;;6.10;3.42;;;;;;;;;;5098327;28;20226;-61
2021/04/18 00:36:06;;;;;;;4.88;3.20;;;;;;;;;;5097329;28;20223;-61
2021/04/18 00:38:33;;;;;;;5.05;3.30;;;;;;;;;;5097344;28;20668;-61
2021/04/18 00:41:00;;;;;;;4.43;3.75;;;;;;;;;;5097582;28;20201;-61
2021/04/18 00:43:27;;;;;;;7.78;3.30;;;;;;;;;;5097272;28;20210;-60
2021/04/18 00:45:53;;;;;;;5.90;3.80;;;;;;;;;;5097082;28;20221;-61
2021/04/18 00:48:20;;;;;;;4.57;3.50;;;;;;;;;;5097307;28;20311;-60
2021/04/18 00:50:48;;;;;;;4.93;3.90;;;;;;;;;;5098713;28;20200;-61
2021/04/18 00:53:14;;;;;;;6.93;3.92;;;;;;;;;;5110051;28;20204;-61
2021/04/18 00:55:42;;;;;;;7.13;3.78;;;;;;;;;;5098552;28;20594;-62
2021/04/18 00:58:09;;;;;;;6.55;4.28;;;;;;;;;;5097127;28;20220;-61
2021/04/18 01:00:37;;;;;;;6.65;3.83;;;;;;;;;;5097312;28;20203;-61
2021/04/18 01:03:04;;;;;;;4.43;3.60;;;;;;;;;;5097153;28;20230;-61
2021/04/18 01:05:30;;;;;;;6.63;3.75;;;;;;;;;;5096989;28;20216;-59
2021/04/18 01:07:58;;;;;;;6.68;3.92;;;;;;;;;;5096776;28;20309;-60
2021/04/18 01:10:25;;;;;;;8.80;3.83;;;;;;;;;;5096949;28;20247;-61
2021/04/18 01:12:52;;;;;;;10.05;4.30;;;;;;;;;;5096907;28;20200;-60
2021/04/18 01:15:19;;;;;;;4.45;3.70;;;;;;;;;;5096895;28;20225;-60
2021/04/18 01:17:46;;;;;;;8.20;4.13;;;;;;;;;;5096787;28;20201;-60
2021/04/18 01:20:15;;;;;;;5.43;3.70;;;;;;;;;;5096940;28;20204;-60
2021/04/18 01:22:42;;;;;;;8.48;4.43;;;;;;;;;;5096463;28;20208;-59
2021/04/18 01:25:11;;;;;;;11.98;4.78;;;;;;;;;;5096907;28;20221;-60
2021/04/18 01:27:39;;;;;;;8.07;4.30;;;;;;;;;;5096675;28;20201;-60
2021/04/18 01:30:07;;;;;;;6.55;4.60;;;;;;;;;;5098474;28;20305;-61
2021/04/18 01:32:34;;;;;;;6.07;3.50;;;;;;;;;;5098399;28;20559;-61
2021/04/18 01:35:02;;;;;;;6.28;3.90;;;;;;;;;;5097055;28;20224;-61
2021/04/18 01:37:28;;;;;;;3.97;3.53;;;;;;;;;;5097163;28;20203;-60
2021/04/18 01:39:56;;;;;;;5.25;4.13;;;;;;;;;;5096812;28;20193;-61
2021/04/18 01:42:23;;;;;;;7.22;4.25;;;;;;;;;;5096325;28;20201;-60
2021/04/18 01:44:50;;;;;;;9.23;4.78;;;;;;;;;;5096306;28;20220;-60
2021/04/18 01:47:16;;;;;;;4.88;3.60;;;;;;;;;;5096332;28;20201;-60
2021/04/18 01:49:43;;;;;;;8.30;4.40;;;;;;;;;;5095792;28;20243;-60
2021/04/18 01:52:10;;;;;;;4.90;3.97;;;;;;;;;;5096655;28;20201;-59
2021/04/18 01:54:37;;;;;;;7.35;5.05;;;;;;;;;;5096334;28;20212;-60
2021/04/18 01:57:05;;;;;;;14.73;4.40;;;;;;;;;;5095885;28;20200;-60
2021/04/18 01:59:31;;;;;;;11.68;4.22;;;;;;;;;;5096026;28;20197;-60
2021/04/18 02:02:06;;;;;;;7.25;4.40;;;;;;;;;;5096084;28;20222;-61
2021/04/18 02:04:32;;;;;;;8.73;4.90;;;;;;;;;;5095985;28;20184;-61
2021/04/18 02:07:01;;;;;;;5.15;3.67;;;;;;;;;;5095752;28;20212;-61
2021/04/18 02:09:30;;;;;;;7.88;3.95;;;;;;;;;;5095501;28;20258;-61
2021/04/18 02:11:56;;;;;;;8.80;4.93;;;;;;;;;;5095935;28;20557;-61
2021/04/18 02:14:24;;;;;;;5.20;4.05;;;;;;;;;;5096868;28;20566;-60
2021/04/18 02:16:51;;;;;;;7.97;4.05;;;;;;;;;;5095818;28;20566;-60
2021/04/18 02:19:18;;;;;;;4.70;3.25;;;;;;;;;;5095602;28;20192;-61
2021/04/18 02:21:45;;;;;;;11.05;3.80;;;;;;;;;;5095602;28;20672;-61
2021/04/18 02:24:12;;;;;;;5.22;4.03;;;;;;;;;;5096007;28;20212;-61
2021/04/18 02:26:39;;;;;;;11.98;4.72;;;;;;;;;;5096691;28;20596;-61
2021/04/18 02:29:05;;;;;;;4.82;3.53;;;;;;;;;;5096739;28;20267;-60
2021/04/18 02:31:33;;;;;;;5.82;4.20;;;;;;;;;;5097611;28;20204;-61
2021/04/18 02:34:00;;;;;;;6.78;4.90;;;;;;;;;;5097218;28;20212;-60
2021/04/18 02:36:27;;;;;;;6.32;3.92;;;;;;;;;;5095385;28;20230;-61
2021/04/18 02:38:54;;;;;;;7.28;4.60;;;;;;;;;;5095656;28;20202;-61
2021/04/18 02:41:20;;;;;;;7.40;4.90;;;;;;;;;;5095346;28;20274;-62
2021/04/18 02:43:47;;;;;;;9.68;4.05;;;;;;;;;;5095398;28;20204;-61
2021/04/18 02:46:14;;;;;;;5.85;3.75;;;;;;;;;;5094410;28;20224;-61
2021/04/18 02:48:42;;;;;;;5.18;4.07;;;;;;;;;;5094662;28;20592;-61
2021/04/18 02:51:08;;;;;;;11.30;4.35;;;;;;;;;;5095161;28;20254;-61
2021/04/18 02:53:35;;;;;;;8.10;4.22;;;;;;;;;;5107194;28;20225;-62
2021/04/18 02:56:02;;;;;;;7.32;4.93;;;;;;;;;;5101629;28;20285;-61
2021/04/18 02:58:29;;;;;;;7.03;3.78;;;;;;;;;;5095871;28;20246;-61
2021/04/18 03:00:56;;;;;;;6.93;4.18;;;;;;;;;;5095146;28;20208;-60
2021/04/18 03:03:22;;;;;;;7.05;4.10;;;;;;;;;;5094684;28;20200;-61
2021/04/18 03:05:50;;;;;;;5.78;4.47;;;;;;;;;;5094429;28;20229;-62
2021/04/18 03:08:17;;;;;;;8.00;4.68;;;;;;;;;;5094740;28;20208;-60
2021/04/18 03:10:43;;;;;;;5.93;4.10;;;;;;;;;;5094891;28;20200;-61
2021/04/18 03:13:10;;;;;;;4.72;4.10;;;;;;;;;;5094763;28;20204;-61
2021/04/18 03:15:37;;;;;;;4.60;4.20;;;;;;;;;;5094390;28;20729;-61
2021/04/18 03:18:04;;;;;;;12.07;4.93;;;;;;;;;;5094211;28;20201;-61
2021/04/18 03:20:31;;;;;;;6.15;4.03;;;;;;;;;;5094209;28;20200;-61
2021/04/18 03:22:58;;;;;;;7.18;4.32;;;;;;;;;;5094337;28;20205;-62
2021/04/18 03:25:25;;;;;;;7.55;4.70;;;;;;;;;;5094030;28;20220;-61
2021/04/18 03:27:52;;;;;;;6.55;3.90;;;;;;;;;;5094267;28;20197;-60
2021/04/18 03:30:19;;;;;;;4.88;4.47;;;;;;;;;;5094502;28;20204;-61
2021/04/18 03:32:46;;;;;;;6.22;4.88;;;;;;;;;;5094358;28;20262;-61
2021/04/18 03:35:13;;;;;;;9.00;5.53;;;;;;;;;;5094114;28;20643;-62
2021/04/18 03:37:40;;;;;;;6.43;5.03;;;;;;;;;;5093967;28;20664;-61
2021/04/18 03:40:08;;;;;;;10.15;5.22;;;;;;;;;;5093933;28;20233;-62
2021/04/18 03:42:35;;;;;;;8.13;4.30;;;;;;;;;;5094197;28;20201;-61
2021/04/18 03:45:02;;;;;;;7.75;4.75;;;;;;;;;;5093943;28;20224;-61
2021/04/18 03:47:28;;;;;;;6.07;4.65;;;;;;;;;;5093985;28;20196;-61
2021/04/18 03:49:55;;;;;;;6.90;5.05;;;;;;;;;;5093887;28;20217;-61
2021/04/18 03:52:22;;;;;;;6.30;5.15;;;;;;;;;;5093906;28;20201;-60
2021/04/18 03:54:49;;;;;;;8.68;5.35;;;;;;;;;;5093677;28;20223;-61
2021/04/18 03:57:16;;;;;;;7.50;5.43;;;;;;;;;;5093421;28;20197;-61
2021/04/18 03:59:43;;;;;;;9.90;6.30;;;;;;;;;;5093932;28;20246;-62
2021/04/18 04:02:10;;;;;;;7.88;6.05;;;;;;;;;;5095824;28;20620;-61
2021/04/18 04:08:00;;;;;;;11.02;6.03;;;;;;;;;;5126228;27;20562;-61
2021/04/18 04:10:27;;;;;;;8.73;5.80;;;;;;;;;;5118986;28;20223;-61
2021/04/18 04:12:53;;;;;;;11.02;6.43;;;;;;;;;;5116990;28;20199;-60
2021/04/18 04:15:20;;;;;;;9.68;5.90;;;;;;;;;;5130896;28;20220;-60
2021/04/18 04:17:47;;;;;;;8.00;5.65;;;;;;;;;;5126637;28;20200;-61
2021/04/18 04:20:14;;;;;;;8.40;5.97;;;;;;;;;;5112440;28;20195;-60
2021/04/18 04:22:43;;;;;;;7.50;5.90;;;;;;;;;;5113045;28;20599;-60
2021/04/18 04:25:12;;;;;;;11.90;6.53;;;;;;;;;;5112982;28;20318;-61
2021/04/18 04:27:38;;;;;;;11.07;5.88;;;;;;;;;;5113273;28;20280;-59
2021/04/18 04:30:06;;;;;;;6.10;5.10;;;;;;;;;;5113496;28;20203;-58
2021/04/18 04:32:33;;;;;;;8.85;5.95;;;;;;;;;;5113247;28;20238;-59
2021/04/18 04:34:59;;;;;;;8.32;5.50;;;;;;;;;;5113126;28;20280;-59
2021/04/18 04:37:26;;;;;;;7.65;6.38;;;;;;;;;;5112895;28;20206;-59
2021/04/18 04:39:53;;;;;;;7.65;5.35;;;;;;;;;;5112540;28;20199;-60
2021/04/18 04:42:21;;;;;;;10.20;6.78;;;;;;;;;;5112475;28;20205;-60
2021/04/18 04:44:47;;;;;;;11.07;6.05;;;;;;;;;;5113285;28;20215;-60
2021/04/18 04:47:14;;;;;;;8.70;6.03;;;;;;;;;;5118252;28;20219;-61
2021/04/18 04:49:41;;;;;;;9.55;5.82;;;;;;;;;;5113829;28;20228;-59
2021/04/18 04:52:09;;;;;;;9.95;6.22;;;;;;;;;;5112851;28;20569;-59
2021/04/18 04:54:36;;;;;;;8.32;5.72;;;;;;;;;;5113798;28;20565;-59
2021/04/18 04:57:03;;;;;;;12.15;6.95;;;;;;;;;;5114283;28;20192;-60
2021/04/18 04:59:31;;;;;;;11.32;6.18;;;;;;;;;;5116316;28;20731;-60
2021/04/18 05:01:57;;;;;;;10.57;6.60;;;;;;;;;;5114232;28;20256;-60
2021/04/18 05:04:24;;;;;;;11.27;7.03;;;;;;;;;;5113597;28;20200;-59
2021/04/18 05:06:52;;;;;;;9.55;6.82;;;;;;;;;;5113429;28;20223;-60
2021/04/18 05:09:18;;;;;;;14.13;6.68;;;;;;;;;;5114217;28;20195;-60
2021/04/18 05:11:45;;;;;;;8.70;6.40;;;;;;;;;;5111480;28;20683;-59
2021/04/18 05:14:12;;;;;;;9.13;6.53;;;;;;;;;;5111391;28;20208;-60
2021/04/18 05:16:39;;;;;;;8.20;6.55;;;;;;;;;;5111079;28;20216;-60
2021/04/18 05:19:06;;;;;;;10.40;6.20;;;;;;;;;;5102363;28;20200;-59
2021/04/18 05:21:33;;;;;;;12.55;7.05;;;;;;;;;;5102717;28;20254;-60
2021/04/18 05:24:00;;;;;;;11.05;6.57;;;;;;;;;;5097330;28;20441;-60
2021/04/18 05:26:27;;;;;;;9.52;6.35;;;;;;;;;;5096995;28;20478;-60
2021/04/18 05:28:55;;;;;;;13.43;6.43;;;;;;;;;;5096944;28;20201;-59
2021/04/18 05:31:22;;;;;;;15.07;7.57;;;;;;;;;;5102626;28;20215;-59
2021/04/18 05:33:49;;;;;;;9.93;7.57;;;;;;;;;;5104884;28;20215;-60
2021/04/18 05:36:16;;;;;;;11.02;6.90;;;;;;;;;;5106401;28;20747;-60
2021/04/18 05:38:43;;;;;;;10.18;7.10;;;;;;;;;;5106506;28;20200;-59
2021/04/18 05:41:10;;;;;;;10.02;6.55;;;;;;;;;;5105385;28;20211;-60
2021/04/18 05:43:37;;;;;;;11.05;6.55;;;;;;;;;;5104561;28;20204;-59
2021/04/18 05:46:04;;;;;;;9.15;6.85;;;;;;;;;;5102816;28;20232;-58
2021/04/18 05:48:31;;;;;;;13.57;8.38;;;;;;;;;;5102246;28;20687;-58
2021/04/18 05:50:58;;;;;;;8.13;7.32;;;;;;;;;;5104859;28;20265;-59
2021/04/18 05:53:25;;;;;;;11.35;7.70;;;;;;;;;;5102337;28;20212;-58
2021/04/18 05:55:52;;;;;;;10.00;6.30;;;;;;;;;;5101385;28;20247;-59
2021/04/18 05:58:18;;;;;;;11.15;6.95;;;;;;;;;;5103047;28;20207;-59
2021/04/18 06:00:45;;;;;;;12.70;6.53;;;;;;;;;;5106098;28;20204;-59
2021/04/18 06:03:12;;;;;;;10.98;7.10;;;;;;;;;;5104610;28;20204;-59
2021/04/18 06:05:39;;;;;;;11.38;7.95;;;;;;;;;;5105821;28;20623;-58
2021/04/18 06:08:07;;;;;;;11.45;7.35;;;;;;;;;;5102150;28;20204;-58
2021/04/18 06:10:33;;;;;;;11.00;7.68;;;;;;;;;;5103009;28;20204;-59
2021/04/18 06:13:00;;;;;;;11.82;7.60;;;;;;;;;;5104598;28;20205;-59
2021/04/18 06:15:27;;;;;;;16.45;7.25;;;;;;;;;;5104681;28;20696;-59
2021/04/18 06:17:54;;;;;;;10.20;7.63;;;;;;;;;;5101253;28;20208;-60
2021/04/18 06:20:21;;;;;;;9.90;7.50;;;;;;;;;;5101973;28;20202;-58
2021/04/18 06:22:48;;;;;;;12.52;8.52;;;;;;;;;;5097208;28;20206;-56
2021/04/18 06:25:16;;;;;;;10.23;8.70;;;;;;;;;;5096954;28;20220;-58
2021/04/18 06:27:43;;;;;;;13.27;9.60;;;;;;;;;;5095808;28;20708;-58
2021/04/18 06:30:10;;;;;;;14.20;9.25;;;;;;;;;;5095312;28;20223;-57
2021/04/18 06:32:37;;;;;;;10.57;8.23;;;;;;;;;;5097302;28;20205;-58
2021/04/18 06:35:04;;;;;;;11.73;8.15;;;;;;;;;;5097187;28;20270;-57
2021/04/18 06:37:31;;;;;;;11.60;8.18;;;;;;;;;;5097756;28;20200;-58
2021/04/18 06:39:58;;;;;;;14.68;8.57;;;;;;;;;;5101324;28;20197;-56
2021/04/18 06:42:26;;;;;;;17.45;9.13;;;;;;;;;;5095490;28;20206;-57
2021/04/18 06:44:53;;;;;;;12.73;8.00;;;;;;;;;;5095492;28;20216;-56
2021/04/18 06:47:20;;;;;;;10.45;8.98;;;;;;;;;;5095287;28;20217;-57
2021/04/18 06:49:48;;;;;;;11.00;8.35;;;;;;;;;;5096329;28;20201;-56
2021/04/18 06:52:15;;;;;;;12.65;8.50;;;;;;;;;;5098990;28;20224;-57
2021/04/18 06:54:42;;;;;;;13.05;9.05;;;;;;;;;;5097024;28;20224;-58
2021/04/18 06:57:09;;;;;;;13.18;9.00;;;;;;;;;;5094765;28;20197;-56
2021/04/18 06:59:37;;;;;;;10.80;8.95;;;;;;;;;;5095035;28;20205;-57
2021/04/18 07:02:05;;;;;;;11.03;8.80;;;;;;;;;;5095128;28;20216;-57
2021/04/18 07:04:33;;;;;;;12.90;9.52;;;;;;;;;;5094573;28;20943;-57
2021/04/18 07:06:59;;;;;;;9.52;8.52;;;;;;;;;;5094312;28;20226;-57
2021/04/18 07:09:27;;;;;;;11.50;8.90;;;;;;;;;;5094793;28;20212;-56
2021/04/18 07:11:54;;;;;;;12.50;8.90;;;;;;;;;;5094912;28;20549;-58
2021/04/18 07:14:22;;;;;;;11.07;8.45;;;;;;;;;;5094211;28;20213;-57
2021/04/18 07:16:50;;;;;;;12.77;8.97;;;;;;;;;;5094490;28;20202;-56
2021/04/18 07:19:20;;;;;;;11.95;8.60;;;;;;;;;;5094497;28;20444;-56
2021/04/18 07:21:48;;;;;;;17.50;11.13;;;;;;;;;;5095154;28;20190;-57
2021/04/18 07:24:15;;;;;;;12.77;9.60;;;;;;;;;;5095185;28;20448;-58
2021/04/18 07:26:41;;;;;;;12.83;9.03;;;;;;;;;;5094636;28;20986;-58
2021/04/18 07:29:13;;;;;;;12.60;9.60;;;;;;;;;;5094952;28;20813;-58
2021/04/18 07:31:39;;;;;;;17.13;10.33;;;;;;;;;;5094610;28;20443;-57
2021/04/18 07:34:08;;;;;;;15.13;9.50;;;;;;;;;;5094478;28;20444;-57
2021/04/18 07:36:36;;;;;;;12.30;11.00;;;;;;;;;;5094470;28;20459;-58
2021/04/18 07:39:04;;;;;;;11.40;9.73;;;;;;;;;;5094534;28;20476;-58
2021/04/18 07:41:30;;;;;;;12.20;10.10;;;;;;;;;;5094239;28;20444;-59
2021/04/18 07:43:57;;;;;;;11.50;9.90;;;;;;;;;;5093695;28;20982;-56
2021/04/18 07:46:24;;;;;;;11.17;10.07;;;;;;;;;;5093747;28;20854;-57
2021/04/18 07:48:51;;;;;;;11.93;10.57;;;;;;;;;;5093780;28;20442;-58
2021/04/18 07:51:19;;;;;;;12.60;10.00;;;;;;;;;;5094002;28;20448;-58
2021/04/18 07:53:47;;;;;;;12.93;9.97;;;;;;;;;;5093535;28;20963;-57
2021/04/18 07:56:14;;;;;;;16.90;10.77;;;;;;;;;;5093596;28;20871;-59
2021/04/18 07:58:42;;;;;;;14.93;10.17;;;;;;;;;;5093160;28;20932;-57
2021/04/18 08:01:09;;;;;;;13.47;10.07;;;;;;;;;;5093504;28;20443;-57
2021/04/18 08:03:36;;;;;;;14.63;11.13;;;;;;;;;;5093477;28;20970;-59
2021/04/18 08:06:05;;;;;;;13.77;10.47;;;;;;;;;;5093504;28;20472;-58
2021/04/18 08:08:45;;;;;;;13.60;9.37;;;;;;;;;;5093673;28;20454;-58
2021/04/18 08:11:13;;;;;;;10.43;9.30;;;;;;;;;;5093615;28;20477;-57
2021/04/18 08:13:41;;;;;;;13.40;9.87;;;;;;;;;;5093682;28;20460;-59
2021/04/18 08:16:08;;;;;;;14.90;10.20;;;;;;;;;;5093554;28;20468;-60
2021/04/18 08:18:36;;;;;;;13.40;9.60;;;;;;;;;;5093346;28;20915;-57
2021/04/18 08:21:04;;;;;;;11.20;9.23;;;;;;;;;;5093144;28;20467;-57
2021/04/18 08:23:41;;;;;;;10.53;9.47;;;;;;;;;;5093438;28;20461;-58
2021/04/18 08:26:11;;;;;;;12.10;9.40;;;;;;;;;;5092980;28;20464;-57
2021/04/18 08:28:58;;;;;;;13.13;8.93;;;;;;;;;;5099056;28;20448;-60
2021/04/18 08:31:25;;;;;;;11.30;10.17;;;;;;;;;;5099957;28;20460;-59
2021/04/18 08:33:53;;;;;;;15.37;9.80;;;;;;;;;;5093670;28;20451;-58
2021/04/18 08:36:20;;;;;;;12.30;10.00;;;;;;;;;;5093977;28;21002;-58
2021/04/18 08:38:48;;;;;;;15.83;9.77;;;;;;;;;;5093641;28;20986;-56
2021/04/18 08:41:16;;;;;;;10.33;8.83;;;;;;;;;;5095452;28;20475;-59
2021/04/18 08:43:44;;;;;;;12.20;10.97;;;;;;;;;;5096999;28;20869;-58
2021/04/18 08:46:10;;;;;;;11.20;8.50;;;;;;;;;;5093476;28;20979;-58
2021/04/18 08:48:37;;;;;;;11.73;9.23;;;;;;;;;;5093453;28;20523;-59
2021/04/18 08:51:05;;;;;;;11.30;10.07;;;;;;;;;;5093627;28;20450;-58
2021/04/18 08:53:47;;;;;;;11.17;9.67;;;;;;;;;;5095494;28;20448;-59
2021/04/18 08:56:14;;;;;;;10.13;8.53;;;;;;;;;;5096669;28;20877;-59
2021/04/18 08:58:41;;;;;;;12.50;9.40;;;;;;;;;;5097204;28;20448;-58
2021/04/18 09:01:09;;;;;;;12.13;9.30;;;;;;;;;;5097069;28;20566;-58
2021/04/18 09:03:36;;;;;;;11.00;9.97;;;;;;;;;;5097028;28;20489;-59
2021/04/18 09:06:12;;;;;;;11.70;9.23;;;;;;;;;;5096475;28;20464;-58
2021/04/18 09:08:51;;;;;;;10.07;8.00;;;;;;;;;;5096564;28;20999;-60
2021/04/18 09:11:18;;;;;;;9.80;8.80;;;;;;;;;;5096620;28;20460;-60
2021/04/18 09:13:56;;;;;;;11.47;8.87;;;;;;;;;;5096361;28;20457;-58
2021/04/18 09:16:26;;;;;;;10.70;9.03;;;;;;;;;;5102144;28;20461;-58
2021/04/18 09:18:53;;;;;;;10.93;9.20;;;;;;;;;;5105680;28;20452;-57
2021/04/18 09:21:21;;;;;;;9.60;8.30;;;;;;;;;;5105055;28;20441;-58
2021/04/18 09:23:58;;;;;;;12.70;9.30;;;;;;;;;;5101924;28;20527;-60
2021/04/18 09:26:25;;;;;;;9.73;8.10;;;;;;;;;;5099734;28;20492;-59
2021/04/18 09:29:12;;;;;;;10.90;8.60;;;;;;;;;;5100388;28;20445;-60
2021/04/18 09:31:55;;;;;;;9.33;8.17;;;;;;;;;;5100614;28;20816;-59
2021/04/18 09:34:22;;;;;;;10.93;8.50;;;;;;;;;;5104239;28;20444;-59
2021/04/18 09:36:50;;;;;;;11.83;9.30;;;;;;;;;;5103716;28;20444;-59
2021/04/18 09:39:16;;;;;;;9.60;8.60;;;;;;;;;;5103530;28;20483;-60
2021/04/18 09:41:45;;;;;;;9.87;8.80;;;;;;;;;;5104055;28;20441;-60
2021/04/18 09:44:32;;;;;;;12.00;9.07;;;;;;;;;;5105255;28;20451;-59
2021/04/18 09:47:07;;;;;;;10.93;8.47;;;;;;;;;;5103399;28;20468;-59
2021/04/18 09:49:56;;;;;;;11.57;9.30;;;;;;;;;;5098818;28;20455;-59
2021/04/18 09:52:34;;;;;;;12.60;8.50;;;;;;;;;;5099121;28;20477;-58
2021/04/18 09:55:19;;;;;;;12.90;9.20;;;;;;;;;;5100058;28;20590;-58
2021/04/18 09:58:02;;;;;;;10.07;8.93;;;;;;;;;;5099204;28;20422;-58
2021/04/18 10:00:44;;;;;;;12.17;9.20;;;;;;;;;;5099233;28;20433;-59
2021/04/18 10:03:15;;;;;;;10.10;8.33;;;;;;;;;;5098241;28;20485;-58
2021/04/18 10:06:03;;;;;;;9.23;8.20;;;;;;;;;;5096995;28;20466;-59
2021/04/18 10:08:32;;;;;;;10.53;8.20;;;;;;;;;;5096888;28;20475;-59
2021/04/18 10:11:16;;;;;;;11.03;8.70;;;;;;;;;;5096490;28;20483;-59
2021/04/18 10:13:45;;;;;;;11.23;7.77;;;;;;;;;;5096813;28;20919;-59
2021/04/18 10:16:14;;;;;;;14.80;9.30;;;;;;;;;;5096311;28;20554;-59
2021/04/18 10:18:41;;;;;;;9.73;8.73;;;;;;;;;;5108517;28;20449;-59
2021/04/18 10:21:14;;;;;;;9.30;8.00;;;;;;;;;;5101937;28;20448;-60
2021/04/18 10:23:41;;;;;;;11.10;8.40;;;;;;;;;;5096037;28;20448;-59
2021/04/18 10:26:08;;;;;;;11.00;8.47;;;;;;;;;;5095579;28;20476;-59
2021/04/18 10:28:35;;;;;;;8.97;7.93;;;;;;;;;;5095745;28;20448;-60
2021/04/18 10:31:01;;;;;;;10.30;8.67;;;;;;;;;;5095425;28;20447;-59
2021/04/18 10:33:29;;;;;;;11.73;8.13;;;;;;;;;;5095609;28;20452;-59
2021/04/18 10:35:56;;;;;;;10.73;7.77;;;;;;;;;;5095441;28;20494;-59
2021/04/18 10:38:23;;;;;;;8.60;7.50;;;;;;;;;;5095570;28;20477;-59
2021/04/18 10:40:50;;;;;;;9.10;8.20;;;;;;;;;;5095540;28;20448;-59
2021/04/18 10:43:16;;;;;;;13.17;8.97;;;;;;;;;;5095794;28;20444;-58
2021/04/18 10:45:43;;;;;;;8.73;7.50;;;;;;;;;;5095090;28;20475;-58
2021/04/18 10:48:10;;;;;;;11.33;8.60;;;;;;;;;;5095028;28;20860;-59
2021/04/18 10:50:38;;;;;;;11.30;9.20;;;;;;;;;;5094966;28;20463;-58
2021/04/18 10:53:05;;;;;;;10.70;8.43;;;;;;;;;;5094671;28;20449;-58
2021/04/18 10:55:31;;;;;;;9.57;7.70;;;;;;;;;;5094499;28;20473;-59
2021/04/18 10:57:58;;;;;;;9.70;8.60;;;;;;;;;;5094384;28;20442;-59
2021/04/18 11:00:27;;;;;;;11.23;8.13;;;;;;;;;;5094723;28;20456;-59
2021/04/18 11:02:54;;;;;;;10.70;8.50;;;;;;;;;;5094305;28;20455;-59
2021/04/18 11:05:20;;;;;;;8.67;7.77;;;;;;;;;;5094088;28;20469;-58
2021/04/18 11:07:48;;;;;;;8.47;7.67;;;;;;;;;;5094074;28;20964;-58
2021/04/18 11:10:15;;;;;;;9.60;8.50;;;;;;;;;;5094373;28;20842;-59
2021/04/18 11:12:42;;;;;;;9.50;7.23;;;;;;;;;;5094626;28;20948;-60
2021/04/18 11:15:09;;;;;;;8.80;7.40;;;;;;;;;;5094286;28;20837;-59
2021/04/18 11:17:37;;;;;;;7.70;6.87;;;;;;;;;;5095035;28;20827;-59
2021/04/18 11:20:05;;;;;;;9.40;7.10;;;;;;;;;;5095127;28;20530;-58
2021/04/18 11:22:31;;;;;;;9.27;8.20;;;;;;;;;;5094708;28;20452;-59
2021/04/18 11:25:00;;;;;;;9.60;7.63;;;;;;;;;;5094246;28;20805;-59
2021/04/18 11:27:27;;;;;;;8.10;6.70;;;;;;;;;;5094025;28;20483;-59
2021/04/18 11:29:54;;;;;;;10.30;7.40;;;;;;;;;;5093973;28;20943;-59
2021/04/18 11:32:21;;;;;;;9.77;7.80;;;;;;;;;;5094147;28;20448;-59
2021/04/18 11:34:48;;;;;;;10.00;7.30;;;;;;;;;;5094239;28;20468;-59
2021/04/18 11:37:15;;;;;;;11.13;6.83;;;;;;;;;;5094865;28;20446;-61
2021/04/18 11:39:42;;;;;;;8.63;6.50;;;;;;;;;;5094505;28;20444;-59
2021/04/18 11:42:10;;;;;;;8.33;6.73;;;;;;;;;;5094420;28;20452;-58
2021/04/18 11:44:37;;;;;;;9.70;6.83;;;;;;;;;;5093653;28;20443;-59
2021/04/18 11:47:03;;;;;;;8.10;6.07;;;;;;;;;;5093510;28;21021;-59
2021/04/18 11:49:30;;;;;;;8.00;6.53;;;;;;;;;;5094521;28;20871;-59
2021/04/18 11:51:57;;;;;;;7.60;5.53;;;;;;;;;;5095059;28;20450;-59
2021/04/18 11:54:24;;;;;;;8.63;5.90;;;;;;;;;;5098792;28;20523;-58
2021/04/18 11:56:51;;;;;;;7.10;6.40;;;;;;;;;;5101956;28;20446;-59
2021/04/18 11:59:18;;;;;;;8.60;6.83;;;;;;;;;;5103535;28;20442;-58
2021/04/18 12:01:45;;;;;;;8.83;6.20;;;;;;;;;;5100359;28;20443;-60
2021/04/18 12:04:12;;;;;;;9.70;6.27;;;;;;;;;;5095355;28;20502;-58
2021/04/18 12:06:39;;;;;;;7.73;5.73;;;;;;;;;;5094540;28;20876;-59
2021/04/18 12:09:06;;;;;;;8.03;6.10;;;;;;;;;;5094762;28;20444;-59
2021/04/18 12:11:33;;;;;;;8.67;6.87;;;;;;;;;;5097214;28;20489;-59
2021/04/18 12:14:00;;;;;;;9.00;6.40;;;;;;;;;;5097878;28;20975;-58
2021/04/18 12:16:28;;;;;;;7.40;6.70;;;;;;;;;;5098426;28;20469;-58
2021/04/18 12:18:55;;;;;;;9.10;7.30;;;;;;;;;;5095099;28;20462;-58
2021/04/18 12:21:21;;;;;;;9.23;7.00;;;;;;;;;;5094400;28;20445;-57
2021/04/18 12:23:48;;;;;;;8.33;6.40;;;;;;;;;;5095853;28;20459;-59
2021/04/18 12:26:15;;;;;;;8.50;6.53;;;;;;;;;;5093390;28;20469;-60
2021/04/18 12:28:42;;;;;;;8.93;6.73;;;;;;;;;;5095529;28;20484;-57
2021/04/18 12:31:08;;;;;;;8.60;6.50;;;;;;;;;;5097330;28;20445;-58
2021/04/18 12:33:36;;;;;;;8.13;6.40;;;;;;;;;;5097956;28;20504;-59
2021/04/18 12:36:04;;;;;;;7.47;6.77;;;;;;;;;;5097410;28;20536;-61
2021/04/18 12:38:31;;;;;;;7.87;6.87;;;;;;;;;;5108248;28;20472;-59
2021/04/18 12:40:58;;;;;;;7.90;7.10;;;;;;;;;;5102247;28;20475;-60
2021/04/18 12:43:25;;;;;;;11.73;7.07;;;;;;;;;;5100322;28;20443;-60
2021/04/18 12:45:52;;;;;;;8.67;7.60;;;;;;;;;;5100018;28;20467;-60
2021/04/18 12:48:18;;;;;;;7.60;6.83;;;;;;;;;;5097122;28;20871;-59
2021/04/18 12:50:46;;;;;;;9.10;6.30;;;;;;;;;;5096950;28;20775;-60
2021/04/18 12:53:13;;;;;;;7.40;6.17;;;;;;;;;;5096952;28;20446;-60
2021/04/18 12:55:39;;;;;;;7.00;6.30;;;;;;;;;;5096926;28;20523;-59
2021/04/18 12:58:06;;;;;;;6.77;5.93;;;;;;;;;;5096927;28;20815;-60
2021/04/18 13:00:33;;;;;;;8.80;6.43;;;;;;;;;;5097099;28;20825;-60
2021/04/18 13:03:01;;;;;;;7.10;6.30;;;;;;;;;;5096852;28;20446;-59
2021/04/18 13:05:28;;;;;;;7.40;6.60;;;;;;;;;;5097082;28;20467;-59
2021/04/18 13:07:56;;;;;;;7.97;5.83;;;;;;;;;;5096684;28;20490;-60
2021/04/18 13:10:25;;;;;;;7.43;6.37;;;;;;;;;;5096691;28;20450;-59
2021/04/18 13:12:52;;;;;;;6.63;5.50;;;;;;;;;;5096403;28;20520;-59
2021/04/18 13:15:19;;;;;;;9.23;5.40;;;;;;;;;;5096431;28;20492;-59
2021/04/18 13:17:46;;;;;;;5.77;5.13;;;;;;;;;;5096908;28;20445;-59
2021/04/18 13:20:13;;;;;;;7.63;5.70;;;;;;;;;;5096644;28;20453;-60
2021/04/18 13:22:40;;;;;;;7.80;6.83;;;;;;;;;;5096546;28;20754;-59
2021/04/18 13:25:10;;;;;;;8.73;7.47;;;;;;;;;;5096324;28;21004;-60
2021/04/18 13:27:37;;;;;;;9.50;6.50;;;;;;;;;;5096364;28;20477;-60
2021/04/18 13:30:04;;;;;;;6.83;6.03;;;;;;;;;;5096419;28;20453;-59
2021/04/18 13:32:31;;;;;;;7.90;6.27;;;;;;;;;;5096268;28;20496;-59
2021/04/18 13:34:58;;;;;;;6.90;6.27;;;;;;;;;;5096056;28;20469;-60
2021/04/18 13:37:25;;;;;;;8.50;5.50;;;;;;;;;;5097087;28;20932;-61
2021/04/18 13:39:51;;;;;;;6.03;4.80;;;;;;;;;;5095389;28;20439;-60
2021/04/18 13:42:19;;;;;;;7.43;5.40;;;;;;;;;;5095883;28;20500;-61
2021/04/18 13:44:46;;;;;;;8.20;4.73;;;;;;;;;;5096004;28;20512;-62
2021/04/18 13:47:13;;;;;;;5.43;4.83;;;;;;;;;;5096149;28;20480;-61
2021/04/18 13:49:39;;;;;;;6.13;5.23;;;;;;;;;;5095882;28;20446;-60
2021/04/18 13:52:06;;;;;;;7.93;5.73;;;;;;;;;;5095720;28;20442;-61
2021/04/18 13:54:33;;;;;;;6.17;5.57;;;;;;;;;;5095938;28;20450;-61
2021/04/18 13:57:00;;;;;;;6.97;6.27;;;;;;;;;;5097108;28;20441;-61
2021/04/18 13:59:28;;;;;;;8.20;5.50;;;;;;;;;;5097940;28;20942;-62
2021/04/18 14:01:54;;;;;;;7.17;5.80;;;;;;;;;;5097856;28;20438;-60
2021/04/18 14:04:21;;;;;;;5.40;4.90;;;;;;;;;;5098243;28;20450;-61
2021/04/18 14:06:48;;;;;;;6.23;5.63;;;;;;;;;;5098656;28;20460;-62
2021/04/18 14:09:15;;;;;;;5.90;5.40;;;;;;;;;;5097885;28;20449;-60
2021/04/18 14:11:42;;;;;;;6.70;6.00;;;;;;;;;;5096965;28;20445;-60
2021/04/18 14:14:08;;;;;;;7.40;5.97;;;;;;;;;;5096280;28;20474;-61
2021/04/18 14:16:37;;;;;;;6.73;5.20;;;;;;;;;;5096330;28;20462;-59
2021/04/18 14:19:03;;;;;;;6.10;5.00;;;;;;;;;;5096783;28;20445;-60
2021/04/18 14:21:30;;;;;;;6.60;5.83;;;;;;;;;;5096974;28;20503;-59
2021/04/18 14:23:57;;;;;;;7.40;5.30;;;;;;;;;;5097084;28;20494;-61
2021/04/18 14:26:24;;;;;;;6.00;5.40;;;;;;;;;;5098466;28;20477;-60
2021/04/18 14:28:50;;;;;;;5.60;4.80;;;;;;;;;;5099617;28;20481;-62
2021/04/18 14:31:18;;;;;;;7.50;5.10;;;;;;;;;;5103793;28;20441;-61
2021/04/18 14:33:46;;;;;;;11.33;6.03;;;;;;;;;;5098194;28;20446;-62
2021/04/18 14:36:12;;;;;;;9.33;7.70;;;;;;;;;;5097627;28;20539;-60
2021/04/18 14:38:39;;;;;;;6.43;5.67;;;;;;;;;;5096852;28;20521;-59
2021/04/18 14:41:06;;;;;;;6.80;4.73;;;;;;;;;;5096290;28;20445;-59
2021/04/18 14:43:33;;;;;;;8.20;7.03;;;;;;;;;;5095799;28;20444;-59
2021/04/18 14:46:00;;;;;;;6.27;5.60;;;;;;;;;;5095611;28;20469;-60